Map

Track Data

SID SEASON NUMBER BASIN SUBBASIN NAME ISO_TIME NATURE LAT LON WMO_WIND WMO_PRES WMO_AGENCY TRACK_TYPE DIST2LAND LANDFALL IFLAG USA_AGENCY USA_ATCF_ID USA_LAT USA_LON USA_RECORD USA_STATUS USA_WIND USA_PRES USA_SSHS USA_R34_NE USA_R34_SE USA_R34_SW USA_R34_NW USA_R50_NE USA_R50_SE USA_R50_SW USA_R50_NW USA_R64_NE USA_R64_SE USA_R64_SW USA_R64_NW USA_POCI USA_ROCI USA_RMW USA_EYE TOKYO_LAT TOKYO_LON TOKYO_GRADE TOKYO_WIND TOKYO_PRES TOKYO_R50_DIR TOKYO_R50_LONG TOKYO_R50_SHORT TOKYO_R30_DIR TOKYO_R30_LONG TOKYO_R30_SHORT TOKYO_LAND CMA_LAT CMA_LON CMA_CAT CMA_WIND CMA_PRES HKO_LAT HKO_LON HKO_CAT HKO_WIND HKO_PRES NEWDELHI_LAT NEWDELHI_LON NEWDELHI_GRADE NEWDELHI_WIND NEWDELHI_PRES NEWDELHI_CI NEWDELHI_DP NEWDELHI_POCI REUNION_LAT REUNION_LON REUNION_TYPE REUNION_WIND REUNION_PRES REUNION_TNUM REUNION_CI REUNION_RMW REUNION_R34_NE REUNION_R34_SE REUNION_R34_SW REUNION_R34_NW REUNION_R50_NE REUNION_R50_SE REUNION_R50_SW REUNION_R50_NW REUNION_R64_NE REUNION_R64_SE REUNION_R64_SW REUNION_R64_NW BOM_LAT BOM_LON BOM_TYPE BOM_WIND BOM_PRES BOM_TNUM BOM_CI BOM_RMW BOM_R34_NE BOM_R34_SE BOM_R34_SW BOM_R34_NW BOM_R50_NE BOM_R50_SE BOM_R50_SW BOM_R50_NW BOM_R64_NE BOM_R64_SE BOM_R64_SW BOM_R64_NW BOM_ROCI BOM_POCI BOM_EYE BOM_POS_METHOD BOM_PRES_METHOD NADI_LAT NADI_LON NADI_CAT NADI_WIND NADI_PRES WELLINGTON_LAT WELLINGTON_LON WELLINGTON_WIND WELLINGTON_PRES DS824_LAT DS824_LON DS824_STAGE DS824_WIND DS824_PRES TD9636_LAT TD9636_LON TD9636_STAGE TD9636_WIND TD9636_PRES TD9635_LAT TD9635_LON TD9635_WIND TD9635_PRES TD9635_ROCI NEUMANN_LAT NEUMANN_LON NEUMANN_CLASS NEUMANN_WIND NEUMANN_PRES MLC_LAT MLC_LON MLC_CLASS MLC_WIND MLC_PRES USA_GUST BOM_GUST BOM_GUST_PER REUNION_GUST REUNION_GUST_PER USA_SEAHGT USA_SEARAD_NE USA_SEARAD_SE USA_SEARAD_SW USA_SEARAD_NW STORM_SPEED STORM_DIR
1969249N25283 1969 72 NA NA GERDA 1969-09-06 00:00:00 TS 24.5000 -77.0000 25 1015 atcf main 70 37 O_____________ atcf AL161969 24.5000 -77.0000 TD 25 1015 -1 13 317
1969249N25283 1969 72 NA NA GERDA 1969-09-06 03:00:00 TS 24.9752 -77.4893 main 41 23 P_____________ AL161969 24.9752 -77.4893 TD 25 -1 13 315
1969249N25283 1969 72 NA NA GERDA 1969-09-06 06:00:00 TS 25.4000 -78.0000 25 atcf main 33 33 O_____________ atcf AL161969 25.4000 -78.0000 TD 25 -1 12 309
1969249N25283 1969 72 NA NA GERDA 1969-09-06 09:00:00 TS 25.7376 -78.5302 main 78 78 P_____________ AL161969 25.7376 -78.5302 TD 25 -1 11 304
1969249N25283 1969 72 NA NA GERDA 1969-09-06 12:00:00 TS 26.0000 -79.0000 25 atcf main 109 79 O_____________ atcf AL161969 26.0000 -79.0000 TD 25 -1 9 304
1969249N25283 1969 72 NA NA GERDA 1969-09-06 15:00:00 TS 26.2297 -79.3303 main 79 49 P_____________ AL161969 26.2521 -79.3151 TD 25 -1 7 307
1969249N25283 1969 72 NA NA GERDA 1969-09-06 18:00:00 TS 26.4000 -79.6000 25 1014 atcf main 49 19 O_____________ atcf AL161969 26.4000 -79.6000 TD 25 1014 -1 6 297
1969249N25283 1969 72 NA NA GERDA 1969-09-06 21:00:00 TS 26.4773 -79.8781 main 19 0 P_____________ AL161969 26.3278 -80.0307 TD 25 1012 -1 6 284
1969249N25283 1969 72 NA NA GERDA 1969-09-07 00:00:00 TS 26.5400 -80.2400 25 1011 hurdat_atl main 0 0 O_____________ hurdat_atl AL161969 26.3000 -80.4000 TD 25 1011 -1 8 298
1969249N25283 1969 72 NA NA GERDA 1969-09-07 03:00:00 TS 26.8387 -80.6442 main 0 0 P_____________ AL161969 26.5973 -80.5524 TD 25 1010 -1 9 318
1969249N25283 1969 72 NA NA GERDA 1969-09-07 06:00:00 TS 27.1714 -80.8857 25 hurdat_atl main 0 0 I_____________ hurdat_atl AL161969 27.0000 -80.6000 TD 25 1010 -1 6 342
1969249N25283 1969 72 NA NA GERDA 1969-09-07 09:00:00 TS 27.4286 -80.8677 main 0 0 P_____________ AL161969 27.3075 -80.6874 TD 25 1010 -1 5 12
1969249N25283 1969 72 NA NA GERDA 1969-09-07 12:00:00 TS 27.7000 -80.7500 25 1010 hurdat_atl main 0 0 O_____________ hurdat_atl AL161969 27.6000 -80.7000 TD 25 1010 -1 6 22
1969249N25283 1969 72 NA NA GERDA 1969-09-07 15:00:00 TS 28.0250 -80.5976 main 0 0 P_____________ AL161969 27.9000 -80.5876 TD 27 -1 7 25
1969249N25283 1969 72 NA NA GERDA 1969-09-07 18:00:00 TS 28.3500 -80.4000 30 hurdat_atl main 14 14 O_____________ hurdat_atl AL161969 28.2000 -80.4000 TD 30 -1 7 30
1969249N25283 1969 72 NA NA GERDA 1969-09-07 21:00:00 TS 28.6213 -80.1999 main 31 31 P_____________ AL161969 28.4925 -80.2074 TD 32 -1 7 33
1969249N25283 1969 72 NA NA GERDA 1969-09-08 00:00:00 TS 28.9000 -80.0000 35 hurdat_atl main 66 66 O_____________ hurdat_atl AL161969 28.8000 -80.0000 TS 35 0 7 28
1969249N25283 1969 72 NA NA GERDA 1969-09-08 03:00:00 TS 29.2199 -79.8433 main 102 102 P_____________ AL161969 29.1274 -79.8146 TS 37 0 8 24
1969249N25283 1969 72 NA NA GERDA 1969-09-08 06:00:00 TS 29.6000 -79.6500 40 hurdat_atl main 137 137 O_____________ hurdat_atl AL161969 29.5000 -79.6000 TS 40 0 9 27
1969249N25283 1969 72 NA NA GERDA 1969-09-08 09:00:00 TS 30.0298 -79.3731 main 176 176 P_____________ AL161969 29.9048 -79.3442 TS 45 0 11 31
1969249N25283 1969 72 NA NA GERDA 1969-09-08 12:00:00 TS 30.5500 -79.0000 50 1000 hurdat_atl main 229 213 O_____________ hurdat_atl AL161969 30.4000 -79.0000 TS 50 1000 0 13 31
1969249N25283 1969 72 NA NA GERDA 1969-09-08 15:00:00 TS 31.1544 -78.5736 main 204 180 P_____________ AL161969 30.9894 -78.5808 TS 55 996 0 16 33
1969249N25283 1969 72 NA NA GERDA 1969-09-08 18:00:00 TS 31.8500 -78.0000 60 993 hurdat_atl main 179 169 O_____________ hurdat_atl AL161969 31.7000 -78.0000 TS 60 993 0 18 38
1969249N25283 1969 72 NA NA GERDA 1969-09-08 21:00:00 TS 32.5761 -77.2448 main 162 145 P_____________ AL161969 32.4976 -77.2166 TS 65 992 1 21 42
1969249N25283 1969 72 NA NA GERDA 1969-09-09 00:00:00 TS 33.4000 -76.3500 70 991 hurdat_atl main 146 106 O_____________ hurdat_atl AL161969 33.4000 -76.3000 HU 70 991 1 23 42
1969249N25283 1969 72 NA NA GERDA 1969-09-09 03:00:00 TS 34.2994 -75.4130 main 105 99 P_____________ AL161969 34.3317 -75.3837 HU 75 988 1 25 40
1969249N25283 1969 72 NA NA GERDA 1969-09-09 06:00:00 TS 35.3500 -74.4000 80 986 hurdat_atl main 108 113 O_____________ hurdat_atl AL161969 35.4000 -74.4000 HU 80 986 1 28 37
1969249N25283 1969 72 NA NA GERDA 1969-09-09 09:00:00 TS 36.5751 -73.3422 main 216 216 P_____________ AL161969 36.6310 -73.3627 HU 85 985 2 31 35
1969249N25283 1969 72 NA NA GERDA 1969-09-09 12:00:00 TS 37.9000 -72.2000 90 984 hurdat_atl main 254 232 O_____________ hurdat_atl AL161969 38.0000 -72.2000 HU 90 984 2 32 37
1969249N25283 1969 72 NA NA GERDA 1969-09-09 15:00:00 TS 39.1294 -70.9166 main 238 145 P_____________ AL161969 39.4146 -70.7791 HU 97 982 3 33 37
1969249N25283 1969 72 NA NA GERDA 1969-09-09 18:00:00 TS 40.5000 -69.6500 105 980 hurdat_atl main 137 93 O_____________ hurdat_atl AL161969 40.9000 -69.4000 HU 105 980 3 35 32
1969249N25283 1969 72 NA NA GERDA 1969-09-09 21:00:00 TS 42.0874 -68.4704 main 128 64 P_____________ AL161969 42.2882 -68.2969 HU 90 980 2 38 24
1969249N25283 1969 72 NA NA GERDA 1969-09-10 00:00:00 TS 44.0000 -67.5000 75 hurdat_atl main 54 0 I_____________ hurdat_atl AL161969 44.0000 -67.5000 HU 75 981 1 42 19
1969249N25283 1969 72 NA NA GERDA 1969-09-10 01:00:00 TS 44.7073 -67.2407 70 hurdat_atl main 0 0 I_____________ hurdat_atl AL161969 44.7000 -67.3000 L HU 70 981 1 45 14
1969249N25283 1969 72 NA NA GERDA 1969-09-10 03:00:00 TS 46.1920 -66.7214 main 0 0 P_____________ AL161969 46.1804 -66.8043 HU 63 981 0 47 13
1969249N25283 1969 72 NA NA GERDA 1969-09-10 06:00:00 ET 48.5000 -66.0000 55 982 hurdat_atl main 0 0 O_____________ hurdat_atl AL161969 48.5000 -66.0000 EX 55 982 -4 47 10
1969249N25283 1969 72 NA NA GERDA 1969-09-10 09:00:00 ET 50.8303 -65.4802 main 0 0 P_____________ AL161969 50.8628 -65.4797 EX 47 983 -4 45 8
1969249N25283 1969 72 NA NA GERDA 1969-09-10 12:00:00 ET 53.0000 -65.0000 40 984 hurdat_atl main 0 0 O_____________ hurdat_atl AL161969 53.0000 -65.0000 EX 40 984 -4 38 11
1969249N25283 1969 72 NA NA GERDA 1969-09-10 15:00:00 ET 54.6121 -64.2816 main 0 0 P_____________ AL161969 54.6121 -64.2816 EX 40 983 -4 31 16
1969249N25283 1969 72 NA NA GERDA 1969-09-10 18:00:00 ET 56.0000 -63.5000 40 982 hurdat_atl main 0 0 O_____________ hurdat_atl AL161969 56.0000 -63.5000 EX 40 982 -4 31 16
1969249N25283 1969 72 NA NA GERDA 1969-09-10 21:00:00 ET 57.5749 -62.7148 main 0 0 P_____________ AL161969 57.5749 -62.7148 EX 42 979 -4 31 15
1969249N25283 1969 72 NA NA GERDA 1969-09-11 00:00:00 ET 59.0000 -62.0000 45 977 hurdat_atl main 55 55 O_____________ hurdat_atl AL161969 59.0000 -62.0000 EX 45 977 -4 26 14
1969249N25283 1969 72 NA NA GERDA 1969-09-11 03:00:00 ET 60.1490 -61.4551 main 139 139 P_____________ AL161969 60.1490 -61.4551 EX 45 977 -4 21 14
1969249N25283 1969 72 NA NA GERDA 1969-09-11 06:00:00 ET 61.0000 -61.0000 45 977 hurdat_atl main 204 204 O_____________ hurdat_atl AL161969 61.0000 -61.0000 EX 45 977 -4 15 20
1969249N25283 1969 72 NA NA GERDA 1969-09-11 09:00:00 ET 61.5377 -60.4228 main 258 255 P_____________ AL161969 61.5377 -60.4228 EX 45 977 -4 11 25
1969249N25283 1969 72 NA NA GERDA 1969-09-11 12:00:00 ET 62.0000 -60.0000 45 977 hurdat_atl main 255 242 O_____________ hurdat_atl AL161969 62.0000 -60.0000 EX 45 977 -4 12 14
1969249N25283 1969 72 NA NA GERDA 1969-09-11 15:00:00 ET 62.7111 -59.7825 main 242 221 P_____________ AL161969 62.7111 -59.7825 EX 45 977 -4 15 0
1969249N25283 1969 72 NA NA GERDA 1969-09-11 18:00:00 ET 63.5000 -60.0000 45 977 hurdat_atl main 221 149 O_____________ hurdat_atl AL161969 63.5000 -60.0000 EX 45 977 -4 16 343
1969249N25283 1969 72 NA NA GERDA 1969-09-11 21:00:00 ET 64.2514 -60.8434 main 144 66 P_____________ AL161969 64.2514 -60.8434 EX 45 978 -4 17 330
1969249N25283 1969 72 NA NA GERDA 1969-09-12 00:00:00 ET 65.0000 -62.0000 45 980 hurdat_atl main 61 0 O_____________ hurdat_atl AL161969 65.0000 -62.0000 EX 45 980 -4 18 328
1969249N25283 1969 72 NA NA GERDA 1969-09-12 03:00:00 ET 65.7497 -63.0453 main 0 0 P_____________ AL161969 65.7497 -63.0453 EX 47 980 -4 17 331
1969249N25283 1969 72 NA NA GERDA 1969-09-12 06:00:00 ET 66.5000 -64.0000 50 980 hurdat_atl main 0 O_____________ hurdat_atl AL161969 66.5000 -64.0000 EX 50 980 -4 17 333

About IBTrACS Database

This database is a web-friendly format of International Best Track Archive for Climate Stewardship (IBTrACS), a global best track data archive curated by NOAA dating back to 1842.

Updated: 2022-05-26